South Bisbee, Arizona
Current Conditions -  °F | °C
As of 12:56 PM on Monday 24 Nov 2014 (Local Time) from KDUG Reporting Station
Clear Clear  
Wind Chill: 59°   Ceiling: Unl
Heat Index: 59°   Visibility: 10mi
Dew Point: -3°   Wind: 10mph
Humidity: 8%   Direction: 310°NW
Pressure: 30.16"   Gusts: 17mph
Location:  31.4799°N, 109.96°W
Report Text: KDUG 241956Z AUTO 31009G15KT 10SM CLR 15/M19 A3016 RMK AO2 SLP189 T01501194
Loading
Personal Weather Stations






























Interactive Weather Map New forecast layout! Learn more

10-Day Weather Forecast

Advertisements
Track Severe Weather on mobile